Time;durP1;ratioP1;P1;durP2;ratioP2;P2;SDS_P1;SDS_P2;PMS_P1;PMS_P2;Temp;Humidity;BMP_temperature;BMP_pressure;BME280_temperature;BME280_humidity;BME280_pressure;Samples;Min_cycle;Max_cycle;Signal;HPM_P1;HPM_P2
2021/10/01 00:01:31;;;;;;;5.77;1.40;;;;;;;10.94;70.96;101153.03;4963249;28;20412;-75
2021/10/01 00:03:56;;;;;;;3.97;1.73;;;;;;;10.93;71.12;101147.84;4970381;28;20415;-75
2021/10/01 00:06:22;;;;;;;4.53;1.93;;;;;;;10.93;70.95;101145.13;4963763;28;20475;-75
2021/10/01 00:08:47;;;;;;;2.30;1.48;;;;;;;10.90;71.35;101146.41;4961361;28;20458;-75
2021/10/01 00:11:12;;;;;;;1.93;1.60;;;;;;;10.87;71.51;101140.59;4972396;28;20418;-76
2021/10/01 00:13:37;;;;;;;4.20;1.80;;;;;;;10.85;71.40;101138.13;4967684;28;20458;-76
2021/10/01 00:16:05;;;;;;;5.40;2.40;;;;;;;10.80;71.42;101134.47;4966217;28;20424;-75
2021/10/01 00:18:30;;;;;;;2.05;1.65;;;;;;;10.75;71.18;101135.16;4960841;28;20407;-75
2021/10/01 00:20:55;;;;;;;2.17;1.97;;;;;;;10.76;70.77;101130.56;4964574;28;20420;-75
2021/10/01 00:23:21;;;;;;;4.10;2.43;;;;;;;10.76;70.86;101123.25;4961907;28;20978;-75
2021/10/01 00:25:46;;;;;;;3.07;1.60;;;;;;;10.74;71.08;101125.34;4964422;28;20427;-75
2021/10/01 00:28:12;;;;;;;2.50;1.60;;;;;;;10.73;71.39;101126.44;4993997;28;20487;-75
2021/10/01 00:30:37;;;;;;;2.57;1.90;;;;;;;10.72;71.92;101121.22;4974238;28;20465;-75
2021/10/01 00:33:02;;;;;;;3.38;1.95;;;;;;;10.71;71.40;101114.97;4966478;28;20411;-75
2021/10/01 00:35:27;;;;;;;4.27;1.90;;;;;;;10.71;71.28;101119.56;4961526;28;20813;-75
2021/10/01 00:37:53;;;;;;;4.40;1.48;;;;;;;10.73;71.74;101110.16;4953464;28;20986;-76
2021/10/01 00:40:18;;;;;;;2.93;1.57;;;;;;;10.73;72.08;101118.31;4964223;28;22795;-75
2021/10/01 00:42:43;;;;;;;1.52;1.42;;;;;;;10.74;72.15;101116.38;4961332;28;20427;-75
2021/10/01 00:45:09;;;;;;;1.63;1.40;;;;;;;10.74;72.55;101105.53;4963242;28;20480;-75
2021/10/01 00:47:35;;;;;;;3.42;1.58;;;;;;;10.74;72.34;101106.38;4970912;28;20927;-75
2021/10/01 00:50:00;;;;;;;7.63;1.60;;;;;;;10.74;72.18;101105.53;4959001;28;20577;-76
2021/10/01 00:52:25;;;;;;;4.00;2.00;;;;;;;10.73;72.05;101101.19;4994752;28;20428;-75
2021/10/01 00:54:52;;;;;;;2.37;1.37;;;;;;;10.71;72.18;101103.28;4967855;28;20582;-75
2021/10/01 00:57:19;;;;;;;3.50;1.50;;;;;;;10.68;72.40;101104.59;4963498;28;20439;-75
2021/10/01 00:59:44;;;;;;;2.78;1.52;;;;;;;10.69;72.27;101103.53;4961889;28;20417;-75
2021/10/01 01:02:10;;;;;;;2.23;1.80;;;;;;;10.68;72.49;101092.91;4966581;28;20936;-75
2021/10/01 01:04:41;;;;;;;2.50;2.30;;;;;;;10.66;72.25;101097.75;4962479;28;20858;-75
2021/10/01 01:07:32;;;;;;;4.50;1.77;;;;;;;10.65;72.50;101098.78;4963097;28;20520;-75
2021/10/01 01:10:15;;;;;;;2.35;1.70;;;;;;;10.66;72.70;101097.75;4963283;28;20423;-76
2021/10/01 01:12:54;;;;;;;3.45;2.40;;;;;;;10.67;72.53;101085.88;4958563;28;20409;-75
2021/10/01 01:15:29;;;;;;;1.70;1.60;;;;;;;10.69;72.70;101083.75;4972934;28;20966;-75
2021/10/01 01:17:59;;;;;;;1.63;1.52;;;;;;;10.69;72.62;101076.44;4977562;28;20776;-75
2021/10/01 01:20:42;;;;;;;3.92;2.45;;;;;;;10.68;72.36;101069.34;4961680;28;20434;-75
2021/10/01 01:23:45;;;;;;;2.00;1.80;;;;;;;10.68;72.45;101071.22;4961412;28;20474;-75
2021/10/01 01:26:39;;;;;;;1.97;1.73;;;;;;;10.64;72.41;101073.56;4961763;28;20942;-75
2021/10/01 01:29:17;;;;;;;3.33;1.65;;;;;;;10.64;72.46;101062.72;4962209;28;20491;-75
2021/10/01 01:31:56;;;;;;;3.65;1.48;;;;;;;10.62;71.95;101066.72;4962367;28;20768;-75
2021/10/01 01:34:34;;;;;;;2.03;1.73;;;;;;;10.58;72.46;101066.38;4954921;28;20445;-75
2021/10/01 01:37:13;;;;;;;3.95;1.58;;;;;;;10.60;72.19;101064.28;4968544;28;20454;-75
2021/10/01 01:39:40;;;;;;;1.42;1.30;;;;;;;10.60;72.12;101066.97;4972170;28;20416;-75
2021/10/01 01:42:07;;;;;;;3.75;1.33;;;;;;;10.57;71.95;101066.63;4957093;28;20853;-75
2021/10/01 01:44:33;;;;;;;8.07;1.50;;;;;;;10.55;72.19;101057.88;4962333;28;20420;-75
2021/10/01 01:47:00;;;;;;;4.90;2.58;;;;;;;10.57;71.53;101066.63;4969653;28;20408;-75
2021/10/01 01:49:28;;;;;;;7.30;4.00;;;;;;;10.55;70.94;101063.28;4978647;28;20431;-75
2021/10/01 01:51:56;;;;;;;5.00;1.92;;;;;;;10.51;70.37;101067.50;4963394;28;20839;-75
2021/10/01 01:54:23;;;;;;;3.00;1.70;;;;;;;10.43;70.04;101057.00;4960648;28;20451;-75
2021/10/01 01:56:49;;;;;;;1.80;1.30;;;;;;;10.36;69.92;101065.22;4961850;28;20435;-75
2021/10/01 01:59:15;;;;;;;2.47;1.38;;;;;;;10.29;70.35;101067.19;4995521;28;20420;-75
2021/10/01 02:01:44;;;;;;;2.35;1.42;;;;;;;10.25;70.54;101055.97;4960935;28;20891;-75
2021/10/01 02:04:11;;;;;;;1.02;1.02;;;;;;;10.20;70.81;101060.44;4958600;28;20431;-75
2021/10/01 02:06:37;;;;;;;1.60;1.58;;;;;;;10.16;70.75;101056.53;4957305;28;20447;-76
2021/10/01 02:09:04;;;;;;;4.80;1.50;;;;;;;10.13;71.04;101051.53;4961883;28;20808;-75
2021/10/01 02:11:31;;;;;;;2.13;2.00;;;;;;;10.13;71.04;101046.09;4996733;28;20420;-75
2021/10/01 02:13:58;;;;;;;2.03;1.92;;;;;;;10.12;71.32;101049.88;4957712;28;20753;-75
2021/10/01 02:16:25;;;;;;;1.80;1.48;;;;;;;10.10;71.36;101050.09;4966916;28;20438;-75
2021/10/01 02:18:52;;;;;;;1.63;1.53;;;;;;;10.13;71.32;101055.06;4971129;28;20507;-75
2021/10/01 02:21:21;;;;;;;3.60;1.40;;;;;;;10.15;71.08;101054.84;4969048;28;20422;-75
2021/10/01 02:23:47;;;;;;;1.20;1.20;;;;;;;10.16;70.92;101049.22;4970787;28;20405;-75
2021/10/01 02:26:33;;;;;;;1.38;1.27;;;;;;;10.15;70.82;101041.31;4961642;28;20414;-75
2021/10/01 02:29:18;;;;;;;4.70;2.10;;;;;;;10.14;70.81;101040.47;4970047;28;20493;-74
2021/10/01 02:32:02;;;;;;;1.88;1.52;;;;;;;10.12;70.46;101041.75;4960303;28;20764;-75
2021/10/01 02:34:53;;;;;;;0.90;0.90;;;;;;;10.11;70.61;101035.50;4972076;28;20422;-74
2021/10/01 02:37:19;;;;;;;1.92;1.23;;;;;;;10.08;70.40;101032.41;4962346;28;20527;-75
2021/10/01 02:39:47;;;;;;;3.72;1.13;;;;;;;10.03;70.86;101032.28;4964691;28;20507;-75
2021/10/01 02:42:15;;;;;;;1.70;1.00;;;;;;;9.98;70.40;101032.94;4961066;28;20432;-75
2021/10/01 02:44:42;;;;;;;1.20;1.10;;;;;;;9.92;70.86;101025.75;4990215;28;20478;-74
2021/10/01 02:47:08;;;;;;;4.32;1.10;;;;;;;9.87;70.20;101026.44;4960899;28;20415;-75
2021/10/01 02:49:36;;;;;;;1.88;1.10;;;;;;;9.83;70.44;101027.09;4965586;28;20894;-75
2021/10/01 02:52:09;;;;;;;1.13;1.02;;;;;;;9.77;70.51;101030.72;4960434;28;20416;-75
2021/10/01 02:54:48;;;;;;;3.38;1.50;;;;;;;9.72;70.46;101028.69;4959935;28;20427;-75
2021/10/01 02:57:29;;;;;;;1.80;1.20;;;;;;;9.74;70.59;101028.47;4967997;28;20562;-75
2021/10/01 03:00:01;;;;;;;3.55;1.20;;;;;;;9.69;71.18;101026.44;4971362;28;20554;-75
2021/10/01 03:02:27;;;;;;;2.72;1.35;;;;;;;9.73;71.44;101024.94;4960484;28;20942;-75
2021/10/01 03:04:55;;;;;;;3.25;1.40;;;;;;;9.76;71.36;101020.94;4962068;28;20495;-75
2021/10/01 03:07:23;;;;;;;4.50;1.52;;;;;;;9.78;71.23;101014.22;4962713;28;20845;-75
2021/10/01 03:09:50;;;;;;;6.47;2.03;;;;;;;9.79;71.42;101009.66;4960913;28;20425;-75
2021/10/01 03:12:21;;;;;;;10.75;2.03;;;;;;;9.81;71.18;101008.38;4963147;28;20412;-74
2021/10/01 03:14:48;;;;;;;11.20;2.13;;;;;;;9.80;70.86;101001.31;4959119;28;20772;-74
2021/10/01 03:17:14;;;;;;;6.03;1.50;;;;;;;9.77;70.84;101007.19;4958986;28;20901;-75
2021/10/01 03:19:39;;;;;;;1.90;1.35;;;;;;;9.76;71.06;101008.22;4963208;28;20462;-74
2021/10/01 03:22:05;;;;;;;1.30;1.17;;;;;;;9.74;71.11;101004.94;4964495;28;20431;-75
2021/10/01 03:24:31;;;;;;;7.78;3.35;;;;;;;9.71;71.25;101004.56;4961708;28;20447;-74
2021/10/01 03:26:57;;;;;;;9.75;4.60;;;;;;;9.69;71.21;100995.81;4965454;28;20455;-74
2021/10/01 03:29:22;;;;;;;4.65;1.58;;;;;;;9.67;71.24;100997.94;4962485;28;20416;-74
2021/10/01 03:31:49;;;;;;;2.05;0.85;;;;;;;9.65;70.75;100987.31;4995426;28;20461;-74
2021/10/01 03:34:16;;;;;;;5.32;1.45;;;;;;;9.67;70.20;100993.34;4960388;28;20434;-74
2021/10/01 03:36:43;;;;;;;4.72;1.13;;;;;;;9.66;70.03;100993.56;4975866;28;20510;-75
2021/10/01 03:39:10;;;;;;;2.55;1.40;;;;;;;9.62;69.84;100981.53;4998429;28;20430;-74
2021/10/01 03:41:36;;;;;;;3.88;0.98;;;;;;;9.60;70.27;100986.34;4967050;28;20455;-74
2021/10/01 03:44:01;;;;;;;4.72;1.10;;;;;;;9.57;70.15;100990.34;4963774;28;20464;-75
2021/10/01 03:46:26;;;;;;;4.10;1.17;;;;;;;9.54;70.64;100984.56;4964216;28;20505;-75
2021/10/01 03:48:52;;;;;;;5.77;1.43;;;;;;;9.51;70.75;100982.31;4961046;28;20502;-75
2021/10/01 03:51:18;;;;;;;4.25;1.70;;;;;;;9.50;71.61;100977.94;4962831;28;20470;-74
2021/10/01 03:53:43;;;;;;;3.17;1.20;;;;;;;9.46;71.64;100982.13;4964945;28;20475;-74
2021/10/01 03:56:18;;;;;;;4.23;1.03;;;;;;;9.47;71.93;100976.50;4963412;28;20427;-74
2021/10/01 03:58:45;;;;;;;7.17;1.40;;;;;;;9.50;71.48;100978.78;4967574;28;20455;-74
2021/10/01 04:01:11;;;;;;;3.95;1.15;;;;;;;9.52;71.02;100976.66;4964667;28;20415;-75
2021/10/01 04:03:36;;;;;;;3.20;1.15;;;;;;;9.53;71.13;100974.78;4962677;28;20425;-75
2021/10/01 04:06:01;;;;;;;2.77;1.07;;;;;;;9.53;71.22;100980.19;4962828;28;20412;-74
2021/10/01 04:08:26;;;;;;;2.33;1.17;;;;;;;9.47;71.44;100971.09;4966958;28;20482;-74
2021/10/01 04:10:52;;;;;;;1.20;1.00;;;;;;;9.41;71.81;100969.31;4965350;28;20469;-75
2021/10/01 04:13:17;;;;;;;2.17;0.80;;;;;;;9.39;71.80;100966.81;4963425;28;20415;-75
2021/10/01 04:15:43;;;;;;;4.20;1.25;;;;;;;9.39;72.20;100966.81;4963710;28;20424;-74
2021/10/01 04:18:08;;;;;;;1.57;1.20;;;;;;;9.37;71.96;100959.97;4962988;28;20419;-75
2021/10/01 04:20:36;;;;;;;2.40;1.03;;;;;;;9.36;72.10;100969.13;4965814;28;20416;-74
2021/10/01 04:23:01;;;;;;;4.55;1.70;;;;;;;9.36;72.61;100963.72;4965319;28;20421;-75
2021/10/01 04:25:27;;;;;;;4.00;1.80;;;;;;;9.36;72.58;100969.97;4967275;28;20423;-74
2021/10/01 04:27:52;;;;;;;3.30;1.57;;;;;;;9.42;72.72;100970.13;4964251;28;21278;-74
2021/10/01 04:30:18;;;;;;;2.20;1.00;;;;;;;9.43;72.50;100964.47;4962855;28;20425;-75
2021/10/01 04:32:46;;;;;;;6.50;1.30;;;;;;;9.42;72.06;100954.69;4992106;28;20420;-74
2021/10/01 04:35:12;;;;;;;1.57;1.07;;;;;;;9.44;72.04;100963.44;4958824;28;20419;-74
2021/10/01 04:37:37;;;;;;;6.40;2.20;;;;;;;9.42;71.80;100957.41;4961141;28;20893;-74
2021/10/01 04:40:04;;;;;;;5.40;1.75;;;;;;;9.39;71.03;100960.56;4962952;28;20518;-75
2021/10/01 04:42:29;;;;;;;1.13;0.90;;;;;;;9.34;70.71;100961.25;4963390;28;20442;-74
2021/10/01 04:44:55;;;;;;;3.00;1.00;;;;;;;9.29;71.43;100958.38;4959543;28;20490;-74
2021/10/01 04:47:20;;;;;;;1.30;1.20;;;;;;;9.26;71.44;100955.31;4958124;28;20511;-74
2021/10/01 04:49:46;;;;;;;3.00;1.10;;;;;;;9.24;71.41;100969.06;4963509;28;20492;-75
2021/10/01 04:52:11;;;;;;;2.70;0.93;;;;;;;9.22;71.79;100967.63;4962090;28;20427;-74
2021/10/01 04:54:37;;;;;;;4.60;1.00;;;;;;;9.17;71.53;100957.47;4971732;28;20422;-74
2021/10/01 04:57:02;;;;;;;1.27;1.17;;;;;;;9.18;71.94;100961.84;4964222;28;20432;-74
2021/10/01 04:59:29;;;;;;;1.80;1.00;;;;;;;9.20;71.76;100964.31;4964758;28;20455;-75
2021/10/01 05:01:54;;;;;;;2.17;0.97;;;;;;;9.22;71.34;100957.63;4963455;28;20773;-74
2021/10/01 05:04:20;;;;;;;3.77;1.10;;;;;;;9.22;71.49;100959.53;4964778;28;20412;-75
2021/10/01 05:06:45;;;;;;;4.53;1.23;;;;;;;9.18;71.81;100952.91;4964010;28;20757;-75
2021/10/01 05:09:10;;;;;;;1.50;0.93;;;;;;;9.20;71.56;100946.22;4958302;28;20451;-74
2021/10/01 05:11:36;;;;;;;3.27;1.03;;;;;;;9.23;71.58;100944.94;4958797;28;20465;-75
2021/10/01 05:14:02;;;;;;;2.07;1.13;;;;;;;9.22;71.34;100940.59;4959127;28;20428;-75
2021/10/01 05:16:28;;;;;;;6.25;1.33;;;;;;;9.22;72.04;100940.59;4959369;28;20430;-75
2021/10/01 05:18:53;;;;;;;3.17;1.55;;;;;;;9.23;72.10;100950.34;4963506;28;20891;-75
2021/10/01 05:21:18;;;;;;;6.37;1.47;;;;;;;9.25;72.23;100938.25;4961146;28;20414;-75
2021/10/01 05:23:43;;;;;;;3.63;1.43;;;;;;;9.25;72.48;100942.84;4965683;28;20422;-75
2021/10/01 05:26:09;;;;;;;4.83;1.83;;;;;;;9.26;72.43;100948.03;4992624;28;20887;-74
2021/10/01 05:28:34;;;;;;;5.03;2.43;;;;;;;9.17;72.31;100943.97;4960268;28;20416;-74
2021/10/01 05:30:59;;;;;;;6.10;1.60;;;;;;;9.13;72.36;100944.63;4958408;28;20424;-75
2021/10/01 05:33:25;;;;;;;3.43;1.33;;;;;;;9.13;72.28;100939.22;4958280;28;20528;-75
2021/10/01 05:35:50;;;;;;;10.38;1.65;;;;;;;9.14;72.23;100943.59;4958265;28;20801;-75
2021/10/01 05:38:16;;;;;;;3.43;1.23;;;;;;;9.16;72.15;100936.88;4956470;28;20420;-75
2021/10/01 05:40:42;;;;;;;6.30;1.87;;;;;;;9.15;71.26;100931.72;4958107;28;21001;-75
2021/10/01 05:43:08;;;;;;;13.20;2.08;;;;;;;9.16;70.66;100944.16;4958720;28;20423;-76
2021/10/01 05:45:34;;;;;;;2.97;1.27;;;;;;;9.10;70.17;100932.38;4959878;28;20420;-75
2021/10/01 05:48:00;;;;;;;2.45;1.00;;;;;;;9.04;70.13;100937.84;4958294;28;20416;-76
2021/10/01 05:50:30;;;;;;;1.98;0.80;;;;;;;8.98;70.19;100922.53;4962007;28;20451;-75
2021/10/01 05:52:59;;;;;;;7.63;1.77;;;;;;;8.94;70.40;100924.84;4959149;28;20993;-75
2021/10/01 05:55:25;;;;;;;8.68;1.10;;;;;;;8.92;69.97;100926.13;4961890;28;20416;-75
2021/10/01 05:57:50;;;;;;;5.57;1.23;;;;;;;8.92;70.14;100921.56;4961345;28;20842;-74
2021/10/01 06:00:16;;;;;;;4.30;1.23;;;;;;;8.97;70.59;100923.56;4959779;28;20416;-74
2021/10/01 06:02:42;;;;;;;3.13;1.13;;;;;;;8.99;70.20;100933.09;4965219;28;20675;-75
2021/10/01 06:05:09;;;;;;;4.72;1.00;;;;;;;9.02;70.79;100923.75;4969510;28;20960;-75
2021/10/01 06:07:35;;;;;;;2.13;1.17;;;;;;;9.06;70.60;100933.88;4958582;28;20416;-75
2021/10/01 06:10:00;;;;;;;3.85;0.93;;;;;;;9.08;70.88;100931.78;4962352;28;20427;-75
2021/10/01 06:12:26;;;;;;;5.72;0.85;;;;;;;9.10;70.87;100932.38;4959477;28;20463;-75
2021/10/01 06:14:53;;;;;;;2.00;1.40;;;;;;;9.12;71.09;100930.28;4964577;28;20423;-75
2021/10/01 06:17:19;;;;;;;3.13;1.20;;;;;;;9.14;71.04;100935.47;4963341;28;20431;-75
2021/10/01 06:19:44;;;;;;;3.30;1.10;;;;;;;9.18;71.46;100942.09;4957317;28;20408;-75
2021/10/01 06:22:11;;;;;;;2.28;0.98;;;;;;;9.20;71.62;100940.81;4958826;28;20910;-75
2021/10/01 06:24:37;;;;;;;5.90;3.17;;;;;;;9.20;71.48;100937.28;4962757;28;20412;-75
2021/10/01 06:27:03;;;;;;;9.87;6.50;;;;;;;9.21;71.88;100945.16;4958959;28;20416;-76
2021/10/01 06:29:28;;;;;;;6.55;4.50;;;;;;;9.24;72.36;100946.59;4958759;28;20793;-75
2021/10/01 06:31:54;;;;;;;7.78;3.50;;;;;;;9.26;71.99;100942.59;4969118;28;20458;-75
2021/10/01 06:34:19;;;;;;;4.80;2.33;;;;;;;9.31;72.54;100939.25;4958174;28;20454;-75
2021/10/01 06:36:45;;;;;;;7.63;2.10;;;;;;;9.33;72.27;100940.66;4957865;28;20516;-74
2021/10/01 06:39:11;;;;;;;3.50;1.50;;;;;;;9.35;72.23;100940.44;4967074;28;20418;-75
2021/10/01 06:41:37;;;;;;;4.57;1.70;;;;;;;9.34;72.33;100941.50;4959351;28;20412;-75
2021/10/01 06:44:06;;;;;;;3.40;1.55;;;;;;;9.31;72.46;100940.06;4958257;28;20424;-75
2021/10/01 06:46:41;;;;;;;2.38;1.60;;;;;;;9.29;73.06;100949.44;4960190;28;20474;-75
2021/10/01 06:49:25;;;;;;;4.53;2.00;;;;;;;9.32;73.10;100949.00;4967580;28;20422;-74
2021/10/01 08:20:37;;;;;;;4.05;1.85;;;;;;;11.01;72.40;100914.25;4962625;28;20413;-75
2021/10/01 08:23:03;;;;;;;4.85;2.08;;;;;;;11.07;72.55;100912.47;4971107;28;20895;-75
2021/10/01 08:25:28;;;;;;;3.77;1.80;;;;;;;11.09;72.95;100913.91;4970491;28;20423;-75
2021/10/01 08:27:53;;;;;;;5.07;2.47;;;;;;;11.14;72.74;100907.75;4970981;28;20457;-76
2021/10/01 08:30:19;;;;;;;4.40;2.00;;;;;;;11.18;72.72;100915.19;4962826;28;20971;-76
2021/10/01 08:32:44;;;;;;;5.53;2.40;;;;;;;11.25;72.81;100907.75;4967701;28;20944;-76
2021/10/01 08:35:11;;;;;;;5.90;3.40;;;;;;;11.29;72.52;100914.38;4982663;28;20423;-75
2021/10/01 08:37:36;;;;;;;7.20;3.28;;;;;;;11.30;71.57;100898.88;4966485;28;20424;-76
2021/10/01 08:40:04;;;;;;;6.20;3.30;;;;;;;11.33;71.00;100898.41;4961231;28;20511;-75
2021/10/01 08:42:33;;;;;;;3.30;3.00;;;;;;;11.37;71.12;100894.16;4966099;28;20555;-75
2021/10/01 08:44:59;;;;;;;5.10;2.50;;;;;;;11.40;70.56;100902.66;4970993;28;20410;-76
2021/10/01 08:47:26;;;;;;;4.65;2.80;;;;;;;11.47;70.72;100891.66;4960711;28;20496;-76
2021/10/01 08:49:51;;;;;;;5.93;2.95;;;;;;;11.52;71.49;100888.22;4967364;28;20423;-76
2021/10/01 08:52:18;;;;;;;2.97;2.53;;;;;;;11.56;71.29;100892.13;4970066;28;20389;-76
2021/10/01 08:54:44;;;;;;;4.80;3.45;;;;;;;11.60;70.86;100885.13;4969876;28;20503;-76
2021/10/01 08:57:10;;;;;;;3.40;2.60;;;;;;;11.66;70.52;100884.97;4972954;28;20431;-76
2021/10/01 08:59:35;;;;;;;3.67;2.67;;;;;;;11.68;70.72;100887.47;4970271;28;20420;-75
2021/10/01 09:02:00;;;;;;;6.47;2.90;;;;;;;11.75;69.89;100882.75;4969020;28;20439;-75
2021/10/01 09:04:26;;;;;;;3.50;2.53;;;;;;;11.80;69.53;100886.38;4972357;28;20416;-75
2021/10/01 09:06:54;;;;;;;3.07;2.87;;;;;;;11.90;69.72;100877.59;4974526;28;20530;-75
2021/10/01 09:09:20;;;;;;;3.60;2.45;;;;;;;11.92;69.70;100876.28;4970302;28;20447;-76
2021/10/01 09:11:45;;;;;;;2.70;2.50;;;;;;;12.05;70.08;100872.47;4970460;28;20433;-75
2021/10/01 09:14:14;;;;;;;2.88;2.45;;;;;;;12.14;69.94;100864.72;4972562;28;20451;-75
2021/10/01 09:16:41;;;;;;;5.47;2.47;;;;;;;12.21;69.81;100862.69;4969856;28;20427;-75
2021/10/01 09:19:08;;;;;;;7.18;2.42;;;;;;;12.28;69.49;100863.34;4974295;28;20400;-76
2021/10/01 09:21:44;;;;;;;5.35;2.90;;;;;;;12.37;69.02;100865.41;4971641;28;20895;-76
2021/10/01 09:24:13;;;;;;;4.55;2.70;;;;;;;12.44;68.98;100860.66;4970057;28;20411;-75
2021/10/01 09:26:54;;;;;;;3.35;2.20;;;;;;;12.57;68.53;100858.66;4965014;28;20426;-76
2021/10/01 09:29:24;;;;;;;3.77;2.80;;;;;;;12.74;68.21;100851.31;4967861;28;20435;-76
2021/10/01 09:31:52;;;;;;;3.58;2.22;;;;;;;13.06;67.26;100854.19;4968787;28;20417;-75
2021/10/01 09:34:23;;;;;;;3.30;1.80;;;;;;;13.24;66.82;100848.47;4970178;28;20428;-76
2021/10/01 09:37:31;;;;;;;2.90;1.90;;;;;;;13.31;66.28;100844.50;4973411;28;20503;-76
2021/10/01 09:39:58;;;;;;;4.60;1.90;;;;;;;13.59;64.91;100839.94;4957794;28;20412;-76
2021/10/01 09:42:30;;;;;;;2.83;1.98;;;;;;;13.91;63.16;100838.91;4965937;28;20464;-76
2021/10/01 09:45:01;;;;;;;1.90;1.70;;;;;;;14.25;62.27;100838.69;4969822;28;20404;-76
2021/10/01 09:47:38;;;;;;;5.03;1.70;;;;;;;14.30;62.66;100844.97;4975178;28;20476;-75
2021/10/01 09:50:12;;;;;;;4.53;1.65;;;;;;;14.30;62.61;100838.69;4971380;28;20507;-75
2021/10/01 09:52:50;;;;;;;3.20;1.95;;;;;;;14.56;63.78;100832.41;4972783;28;20396;-76
2021/10/01 09:55:22;;;;;;;2.67;1.27;;;;;;;15.13;60.39;100829.75;4966134;28;20555;-76
2021/10/01 09:58:07;;;;;;;3.65;1.38;;;;;;;15.85;59.86;100824.28;4966470;28;20420;-75
2021/10/01 10:00:41;;;;;;;2.08;1.30;;;;;;;16.36;58.95;100825.16;4964413;28;20892;-76
2021/10/01 10:03:12;;;;;;;2.17;1.67;;;;;;;16.70;57.03;100813.63;4971681;28;20443;-76
2021/10/01 10:06:01;;;;;;;5.40;1.65;;;;;;;17.14;54.55;100820.09;4971137;28;20415;-76
2021/10/01 10:08:30;;;;;;;2.15;1.70;;;;;;;17.32;55.16;100822.19;4970205;28;20412;-76
2021/10/01 10:10:56;;;;;;;3.72;1.88;;;;;;;17.73;52.50;100817.38;4966159;28;20779;-76
2021/10/01 10:13:49;;;;;;;2.88;1.60;;;;;;;18.20;51.32;100810.47;4970511;28;20455;-76
2021/10/01 10:16:29;;;;;;;4.60;1.70;;;;;;;18.41;51.17;100804.50;4966549;28;20424;-77
2021/10/01 10:18:58;;;;;;;5.03;1.40;;;;;;;18.95;50.63;100803.44;4963320;28;20470;-76
2021/10/01 10:21:24;;;;;;;2.92;1.77;;;;;;;19.30;50.15;100797.50;4972001;28;20400;-76
2021/10/01 10:23:50;;;;;;;2.30;1.42;;;;;;;19.53;49.64;100796.69;4963281;28;20748;-74
2021/10/01 10:26:16;;;;;;;1.98;1.00;;;;;;;19.90;48.03;100795.03;4965114;28;20456;-75
2021/10/01 10:28:43;;;;;;;3.58;1.40;;;;;;;20.36;46.36;100790.47;4971037;28;20800;-74
2021/10/01 10:31:10;;;;;;;1.63;1.45;;;;;;;20.66;45.19;100787.16;4969540;28;20440;-78
2021/10/01 10:33:38;;;;;;;1.47;1.20;;;;;;;20.89;44.69;100790.03;4967919;28;20482;-76
2021/10/01 10:36:44;;;;;;;3.70;2.20;;;;;;;21.37;42.21;100785.75;4966937;28;20812;-78
2021/10/01 10:39:12;;;;;;;2.28;1.67;;;;;;;21.76;41.54;100787.13;4935758;29;20415;-76
2021/10/01 10:41:41;;;;;;;1.70;1.40;;;;;;;22.22;41.22;100776.63;4962972;28;20420;-76
2021/10/01 10:44:08;;;;;;;2.05;1.33;;;;;;;22.73;40.71;100779.72;4956623;28;20413;-76
2021/10/01 10:46:36;;;;;;;1.45;1.25;;;;;;;22.92;40.31;100779.47;4969024;28;20412;-74
2021/10/01 10:49:25;;;;;;;2.20;1.20;;;;;;;22.82;40.69;100776.97;4969801;28;20427;-76
2021/10/01 10:51:57;;;;;;;2.92;0.93;;;;;;;22.81;40.74;100767.06;4964982;28;20408;-76
2021/10/01 10:54:22;;;;;;;1.50;1.10;;;;;;;22.78;40.04;100764.13;4960030;28;21126;-76
2021/10/01 10:57:21;;;;;;;1.33;1.10;;;;;;;22.72;40.54;100764.25;4966302;28;20522;-77
2021/10/01 10:59:48;;;;;;;2.30;0.90;;;;;;;22.69;39.88;100751.09;4982526;28;20490;-76
2021/10/01 11:02:41;;;;;;;1.17;1.08;;;;;;;22.56;39.31;100746.44;4964568;28;20394;-76
2021/10/01 11:05:26;;;;;;;1.10;0.90;;;;;;;23.12;38.77;100744.88;4959782;28;20412;-76
2021/10/01 11:08:03;;;;;;;2.38;0.80;;;;;;;23.81;36.15;100743.03;4974987;28;20915;-76
2021/10/01 11:10:43;;;;;;;3.60;0.95;;;;;;;24.33;34.55;100734.72;4967737;28;20504;-76
2021/10/01 11:13:23;;;;;;;2.55;1.05;;;;;;;24.65;33.27;100732.16;4972178;28;20412;-76
2021/10/01 11:16:13;;;;;;;2.05;0.77;;;;;;;24.64;33.33;100733.28;4967301;28;20522;-75
2021/10/01 11:18:42;;;;;;;2.05;1.00;;;;;;;24.65;34.16;100725.78;4965813;28;20478;-76
2021/10/01 11:21:32;;;;;;;1.30;1.20;;;;;;;24.51;34.78;100720.47;4967551;28;20450;-75
2021/10/01 11:24:10;;;;;;;1.20;1.10;;;;;;;23.87;37.09;100719.63;4970934;28;20732;-76
2021/10/01 11:26:52;;;;;;;1.33;0.90;;;;;;;23.45;37.41;100712.09;4972233;28;20388;-76
2021/10/01 11:29:26;;;;;;;1.20;1.10;;;;;;;23.24;36.82;100717.44;4956943;28;20418;-76
2021/10/01 11:31:56;;;;;;;0.82;0.80;;;;;;;22.49;39.27;100707.41;4970403;28;20400;-76
2021/10/01 11:34:44;;;;;;;0.88;0.88;;;;;;;22.09;40.56;100703.00;4958634;28;20464;-76
2021/10/01 11:37:32;;;;;;;1.30;1.10;;;;;;;21.85;42.32;100695.00;4967375;28;20427;-75
2021/10/01 11:40:18;;;;;;;1.52;1.00;;;;;;;21.71;43.10;100685.97;4968864;28;20420;-75
2021/10/01 11:42:46;;;;;;;3.92;1.00;;;;;;;21.69;43.11;100683.53;4958052;28;20422;-76
2021/10/01 11:45:18;;;;;;;2.05;0.90;;;;;;;21.68;42.97;100681.09;4967705;28;20916;-75
2021/10/01 11:47:55;;;;;;;2.27;1.33;;;;;;;21.65;40.85;100677.03;4982672;28;20412;-76
2021/10/01 11:50:32;;;;;;;4.25;1.40;;;;;;;21.64;42.85;100669.03;4992116;28;20412;-76
2021/10/01 11:52:58;;;;;;;3.03;0.80;;;;;;;21.72;43.10;100669.13;4993999;28;20426;-76
2021/10/01 11:55:26;;;;;;;3.72;1.00;;;;;;;22.08;41.25;100671.00;4962552;28;20454;-76
2021/10/01 11:57:52;;;;;;;1.50;1.10;;;;;;;22.22;38.63;100655.16;4963358;28;20427;-75
2021/10/01 12:00:18;;;;;;;4.60;1.37;;;;;;;22.34;38.59;100654.56;4959740;28;20456;-76
2021/10/01 12:02:48;;;;;;;2.92;1.17;;;;;;;22.13;39.66;100641.31;4961696;28;20511;-75
2021/10/01 12:05:34;;;;;;;3.40;1.02;;;;;;;21.63;40.94;100639.84;4959508;28;20919;-76
2021/10/01 12:08:12;;;;;;;4.30;0.95;;;;;;;21.00;41.82;100631.69;4959913;28;20425;-76
2021/10/01 12:10:41;;;;;;;1.88;0.93;;;;;;;20.73;42.87;100628.97;4961847;28;20416;-75
2021/10/01 12:13:18;;;;;;;2.33;1.30;;;;;;;20.58;44.62;100616.34;4966470;28;20416;-75
2021/10/01 12:15:53;;;;;;;3.75;1.30;;;;;;;21.37;42.18;100611.28;4963206;28;20420;-75
2021/10/01 12:18:52;;;;;;;2.22;1.00;;;;;;;23.09;36.80;100605.38;4959967;28;20431;-75
2021/10/01 12:21:20;;;;;;;3.17;2.37;;;;;;;24.28;35.45;100597.19;4957453;28;20491;-75
2021/10/01 12:23:54;;;;;;;3.00;1.02;;;;;;;24.86;35.35;100593.66;4960590;28;20423;-75
2021/10/01 12:26:35;;;;;;;2.42;0.90;;;;;;;25.08;32.79;100590.53;4960276;28;20511;-74
2021/10/01 12:29:01;;;;;;;3.10;0.70;;;;;;;24.94;34.33;100589.19;4958670;28;20530;-74
2021/10/01 12:31:31;;;;;;;2.47;0.90;;;;;;;24.64;34.03;100593.91;4959410;28;20458;-74
2021/10/01 12:34:00;;;;;;;6.00;1.60;;;;;;;24.73;33.22;100583.59;4954930;28;20428;-74
2021/10/01 12:36:27;;;;;;;1.15;0.85;;;;;;;24.89;33.08;100579.13;4959734;28;20426;-75
2021/10/01 12:38:55;;;;;;;3.28;1.17;;;;;;;24.94;33.34;100572.53;4991267;28;20419;-74
2021/10/01 12:41:21;;;;;;;2.95;1.17;;;;;;;24.95;32.79;100576.94;4962343;28;20440;-74
2021/10/01 12:43:51;;;;;;;1.73;0.80;;;;;;;24.75;33.79;100568.25;4959980;28;20412;-74
2021/10/01 12:46:45;;;;;;;3.65;1.17;;;;;;;24.37;34.83;100563.94;4957242;28;20415;-74
2021/10/01 12:49:22;;;;;;;6.00;1.38;;;;;;;23.83;36.61;100551.75;4959707;28;23276;-74
2021/10/01 12:52:27;;;;;;;1.98;0.60;;;;;;;22.97;38.47;100557.41;4959703;28;20482;-74
2021/10/01 12:54:55;;;;;;;1.42;1.00;;;;;;;22.52;39.57;100554.91;4938067;28;20513;-74
2021/10/01 12:57:26;;;;;;;2.20;1.48;;;;;;;22.20;39.53;100558.03;4940563;28;20433;-74
2021/10/01 12:59:59;;;;;;;0.80;0.77;;;;;;;21.91;40.01;100555.00;4938170;28;20437;-74
2021/10/01 13:02:27;;;;;;;1.77;0.70;;;;;;;21.59;42.29;100556.94;4937508;28;20485;-73
2021/10/01 13:05:03;;;;;;;2.13;0.83;;;;;;;21.44;41.47;100551.00;4935945;28;20960;-74
2021/10/01 13:07:40;;;;;;;1.60;0.80;;;;;;;21.23;40.21;100553.44;4961299;28;20799;-73
2021/10/01 13:10:15;;;;;;;2.95;0.90;;;;;;;21.03;42.83;100551.16;4959484;28;20501;-73
2021/10/01 13:12:46;;;;;;;1.83;1.27;;;;;;;20.82;43.48;100548.03;4960172;28;20449;-75